Time,TemperatureF,DewpointF,PressureIn,WindDirection,WindDirectionDegrees,WindSpeedMPH,WindSpeedGustMPH,Humidity,HourlyPrecipIn,Conditions,Clouds,dailyrainin,SoftwareType,DateUTC
2013-04-20 00:04:00,32.8,12.0,30.10,South,169,0.0,3.0,42,0.00,,,0.00,weatherlink.com 1.10,2013-04-20 07:04:00,
2013-04-20 00:19:00,32.5,12.0,30.11,South,169,0.0,1.0,43,0.00,,,0.00,weatherlink.com 1.10,2013-04-20 07:19:00,
2013-04-20 00:34:00,31.7,13.0,30.11,South,169,0.0,1.0,46,0.00,,,0.00,weatherlink.com 1.10,2013-04-20 07:34:00,
2013-04-20 00:50:00,31.2,11.0,30.10,South,169,0.0,1.0,44,0.00,,,0.00,weatherlink.com 1.10,2013-04-20 07:50:00,
2013-04-20 01:05:00,30.7,13.0,30.09,South,169,0.0,1.0,47,0.00,,,0.00,weatherlink.com 1.10,2013-04-20 08:05:00,
2013-04-20 01:20:00,30.0,12.0,30.10,South,169,1.0,2.0,48,0.00,,,0.00,weatherlink.com 1.10,2013-04-20 08:20:00,
2013-04-20 01:35:00,29.7,12.0,30.09,South,169,0.0,2.0,48,0.00,,,0.00,weatherlink.com 1.10,2013-04-20 08:35:00,
2013-04-20 01:50:00,29.6,12.0,30.08,South,169,1.0,2.0,49,0.00,,,0.00,weatherlink.com 1.10,2013-04-20 08:50:00,
2013-04-20 02:05:00,29.3,12.0,30.09,South,169,0.0,3.0,49,0.00,,,0.00,weatherlink.com 1.10,2013-04-20 09:05:00,
2013-04-20 02:20:00,29.4,13.0,30.08,South,169,0.0,2.0,50,0.00,,,0.00,weatherlink.com 1.10,2013-04-20 09:20:00,
2013-04-20 02:35:00,29.2,13.0,30.08,South,169,0.0,2.0,50,0.00,,,0.00,weatherlink.com 1.10,2013-04-20 09:35:00,
2013-04-20 02:50:00,29.0,13.0,30.08,South,169,2.0,2.0,51,0.00,,,0.00,weatherlink.com 1.10,2013-04-20 09:50:00,
2013-04-20 03:05:00,29.1,12.0,30.08,South,169,0.0,2.0,50,0.00,,,0.00,weatherlink.com 1.10,2013-04-20 10:05:00,
2013-04-20 03:20:00,29.2,13.0,30.08,South,169,0.0,2.0,51,0.00,,,0.00,weatherlink.com 1.10,2013-04-20 10:20:00,
2013-04-20 03:35:00,29.0,13.0,30.08,South,169,1.0,1.0,52,0.00,,,0.00,weatherlink.com 1.10,2013-04-20 10:35:00,
2013-04-20 03:50:00,28.9,13.0,30.08,South,169,0.0,2.0,52,0.00,,,0.00,weatherlink.com 1.10,2013-04-20 10:50:00,
2013-04-20 04:05:00,28.7,13.0,30.08,South,169,0.0,2.0,52,0.00,,,0.00,weatherlink.com 1.10,2013-04-20 11:05:00,
2013-04-20 04:20:00,28.4,13.0,30.08,South,169,0.0,2.0,53,0.00,,,0.00,weatherlink.com 1.10,2013-04-20 11:20:00,
2013-04-20 04:35:00,28.4,13.0,30.08,South,169,0.0,2.0,53,0.00,,,0.00,weatherlink.com 1.10,2013-04-20 11:35:00,
2013-04-20 04:50:00,28.8,13.0,30.08,ENE,77,0.0,3.0,52,0.00,,,0.00,weatherlink.com 1.10,2013-04-20 11:50:00,
2013-04-20 05:05:00,28.9,13.0,30.09,ENE,77,0.0,3.0,52,0.00,,,0.00,weatherlink.com 1.10,2013-04-20 12:05:00,
2013-04-20 05:20:00,28.5,13.0,30.08,ENE,77,0.0,2.0,53,0.00,,,0.00,weatherlink.com 1.10,2013-04-20 12:20:00,
2013-04-20 05:35:00,28.3,13.0,30.07,ENE,77,0.0,2.0,54,0.00,,,0.00,weatherlink.com 1.10,2013-04-20 12:35:00,
2013-04-20 05:50:00,28.6,13.0,30.08,NE,39,0.0,3.0,53,0.00,,,0.00,weatherlink.com 1.10,2013-04-20 12:50:00,
2013-04-20 06:05:00,29.1,13.0,30.08,NE,39,1.0,2.0,52,0.00,,,0.00,weatherlink.com 1.10,2013-04-20 13:05:00,
2013-04-20 06:20:00,29.5,14.0,30.09,NE,41,2.0,3.0,52,0.00,,,0.00,weatherlink.com 1.10,2013-04-20 13:20:00,
2013-04-20 06:35:00,30.1,14.0,30.09,NE,51,2.0,3.0,51,0.00,,,0.00,weatherlink.com 1.10,2013-04-20 13:35:00,
2013-04-20 06:50:00,31.0,14.0,30.10,North,4,0.0,2.0,50,0.00,,,0.00,weatherlink.com 1.10,2013-04-20 13:50:00,
2013-04-20 07:05:00,32.9,15.0,30.10,North,4,0.0,2.0,48,0.00,,,0.00,weatherlink.com 1.10,2013-04-20 14:05:00,
2013-04-20 07:20:00,35.2,17.0,30.11,North,4,0.0,2.0,47,0.00,,,0.00,weatherlink.com 1.10,2013-04-20 14:20:00,
2013-04-20 07:35:00,37.6,18.0,30.11,North,4,0.0,0.0,46,0.00,,,0.00,weatherlink.com 1.10,2013-04-20 14:35:00,
2013-04-20 07:51:00,40.9,18.0,30.12,North,4,0.0,1.0,40,0.00,,,0.00,weatherlink.com 1.10,2013-04-20 14:51:00,
2013-04-20 08:06:00,44.9,17.0,30.12,North,4,0.0,3.0,32,0.00,,,0.00,weatherlink.com 1.10,2013-04-20 15:06:00,
2013-04-20 08:21:00,48.4,16.0,30.12,NNW,330,0.0,5.0,28,0.00,,,0.00,weatherlink.com 1.10,2013-04-20 15:21:00,
2013-04-20 08:36:00,50.9,15.0,30.11,NNW,338,3.0,5.0,24,0.00,,,0.00,weatherlink.com 1.10,2013-04-20 15:36:00,
2013-04-20 08:51:00,52.2,15.0,30.11,WSW,246,1.0,5.0,23,0.00,,,0.00,weatherlink.com 1.10,2013-04-20 15:51:00,
2013-04-20 09:06:00,52.9,16.0,30.11,NNE,14,3.0,5.0,23,0.00,,,0.00,weatherlink.com 1.10,2013-04-20 16:06:00,
2013-04-20 09:21:00,53.9,18.0,30.09,NNW,337,2.0,11.0,24,0.00,,,0.00,weatherlink.com 1.10,2013-04-20 16:21:00,
2013-04-20 09:36:00,54.8,16.0,30.09,WSW,255,0.0,7.0,22,0.00,,,0.00,weatherlink.com 1.10,2013-04-20 16:36:00,
2013-04-20 09:51:00,55.1,17.0,30.09,WSW,254,5.0,10.0,22,0.00,,,0.00,weatherlink.com 1.10,2013-04-20 16:51:00,
2013-04-20 10:06:00,55.5,18.0,30.09,SW,223,6.0,6.0,23,0.00,,,0.00,weatherlink.com 1.10,2013-04-20 17:06:00,
2013-04-20 10:21:00,56.6,19.0,30.09,WSW,243,4.0,8.0,23,0.00,,,0.00,weatherlink.com 1.10,2013-04-20 17:21:00,
2013-04-20 10:36:00,57.7,19.0,30.09,NW,319,2.0,11.0,22,0.00,,,0.00,weatherlink.com 1.10,2013-04-20 17:36:00,
2013-04-20 10:51:00,58.1,20.0,30.09,NW,310,8.0,10.0,23,0.00,,,0.00,weatherlink.com 1.10,2013-04-20 17:51:00,
2013-04-20 11:06:00,58.2,20.0,30.08,WSW,252,5.0,8.0,23,0.00,,,0.00,weatherlink.com 1.10,2013-04-20 18:06:00,
2013-04-20 11:21:00,59.4,19.0,30.07,WSW,240,2.0,12.0,21,0.00,,,0.00,weatherlink.com 1.10,2013-04-20 18:21:00,
2013-04-20 11:36:00,59.4,18.0,30.06,SW,221,4.0,16.0,20,0.00,,,0.00,weatherlink.com 1.10,2013-04-20 18:36:00,
2013-04-20 11:51:00,60.4,18.0,30.05,West,264,2.0,8.0,19,0.00,,,0.00,weatherlink.com 1.10,2013-04-20 18:51:00,
2013-04-20 12:06:00,60.3,20.0,30.05,SW,214,0.0,10.0,21,0.00,,,0.00,weatherlink.com 1.10,2013-04-20 19:06:00,
2013-04-20 12:21:00,60.2,20.0,30.05,SW,225,7.0,9.0,21,0.00,,,0.00,weatherlink.com 1.10,2013-04-20 19:21:00,
2013-04-20 12:36:00,60.6,18.0,30.05,SW,223,1.0,13.0,19,0.00,,,0.00,weatherlink.com 1.10,2013-04-20 19:36:00,
2013-04-20 12:51:00,61.0,21.0,30.05,SSW,206,2.0,8.0,21,0.00,,,0.00,weatherlink.com 1.10,2013-04-20 19:51:00,
2013-04-20 13:06:00,62.5,20.0,30.04,SSE,157,0.0,8.0,19,0.00,,,0.00,weatherlink.com 1.10,2013-04-20 20:06:00,
2013-04-20 13:21:00,63.0,17.0,30.04,WNW,288,4.0,10.0,17,0.00,,,0.00,weatherlink.com 1.10,2013-04-20 20:21:00,
2013-04-20 13:37:00,63.2,19.0,30.04,WSW,245,2.0,8.0,18,0.00,,,0.00,weatherlink.com 1.10,2013-04-20 20:37:00,
2013-04-20 13:52:00,63.3,18.0,30.03,NW,319,2.0,7.0,17,0.00,,,0.00,weatherlink.com 1.10,2013-04-20 20:52:00,
2013-04-20 14:07:00,63.8,17.0,30.03,WSW,255,3.0,9.0,16,0.00,,,0.00,weatherlink.com 1.10,2013-04-20 21:07:00,
2013-04-20 14:22:00,64.9,16.0,30.02,East,82,2.0,7.0,15,0.00,,,0.00,weatherlink.com 1.10,2013-04-20 21:22:00,
2013-04-20 14:37:00,65.2,19.0,30.01,WSW,241,2.0,7.0,17,0.00,,,0.00,weatherlink.com 1.10,2013-04-20 21:37:00,
2013-04-20 14:52:00,65.5,19.0,30.00,WSW,240,4.0,11.0,17,0.00,,,0.00,weatherlink.com 1.10,2013-04-20 21:52:00,
2013-04-20 15:07:00,65.6,19.0,30.00,SSW,201,1.0,13.0,17,0.00,,,0.00,weatherlink.com 1.10,2013-04-20 22:07:00,
2013-04-20 15:22:00,65.7,18.0,30.00,SW,234,2.0,8.0,16,0.00,,,0.00,weatherlink.com 1.10,2013-04-20 22:22:00,
2013-04-20 15:37:00,66.9,18.0,29.99,West,269,5.0,9.0,15,0.00,,,0.00,weatherlink.com 1.10,2013-04-20 22:37:00,
2013-04-20 15:52:00,66.1,17.0,29.99,SW,215,6.0,8.0,15,0.00,,,0.00,weatherlink.com 1.10,2013-04-20 22:52:00,
2013-04-20 16:07:00,65.2,16.0,29.99,SW,222,2.0,10.0,15,0.00,,,0.00,weatherlink.com 1.10,2013-04-20 23:07:00,
2013-04-20 16:22:00,64.4,16.0,29.99,West,262,1.0,8.0,15,0.00,,,0.00,weatherlink.com 1.10,2013-04-20 23:22:00,
2013-04-20 16:37:00,64.1,14.0,29.99,SW,231,0.0,10.0,14,0.00,,,0.00,weatherlink.com 1.10,2013-04-20 23:37:00,
2013-04-20 16:52:00,64.3,14.0,30.00,NNW,331,3.0,11.0,14,0.00,,,0.00,weatherlink.com 1.10,2013-04-20 23:52:00,
2013-04-20 17:07:00,64.7,11.0,30.00,North,357,5.0,10.0,12,0.00,,,0.00,weatherlink.com 1.10,2013-04-21 00:07:00,
2013-04-20 17:22:00,63.7,13.0,30.00,WSW,254,4.0,7.0,14,0.00,,,0.00,weatherlink.com 1.10,2013-04-21 00:22:00,
2013-04-20 17:37:00,63.2,11.0,30.01,SW,214,3.0,8.0,13,0.00,,,0.00,weatherlink.com 1.10,2013-04-21 00:37:00,
2013-04-20 17:52:00,62.7,11.0,30.01,WSW,258,3.0,6.0,13,0.00,,,0.00,weatherlink.com 1.10,2013-04-21 00:52:00,
2013-04-20 18:07:00,61.8,12.0,30.01,West,259,0.0,5.0,14,0.00,,,0.00,weatherlink.com 1.10,2013-04-21 01:07:00,
2013-04-20 18:22:00,61.2,11.0,30.02,WNW,301,0.0,3.0,14,0.00,,,0.00,weatherlink.com 1.10,2013-04-21 01:22:00,
2013-04-20 18:37:00,60.4,11.0,30.02,SW,217,0.0,4.0,14,0.00,,,0.00,weatherlink.com 1.10,2013-04-21 01:37:00,
2013-04-20 18:52:00,59.3,11.0,30.02,SW,217,0.0,1.0,15,0.00,,,0.00,weatherlink.com 1.10,2013-04-21 01:52:00,
2013-04-20 19:07:00,57.6,14.0,30.03,SW,217,0.0,0.0,18,0.00,,,0.00,weatherlink.com 1.10,2013-04-21 02:07:00,
2013-04-20 19:22:00,55.5,14.0,30.04,SW,217,0.0,0.0,19,0.00,,,0.00,weatherlink.com 1.10,2013-04-21 02:22:00,
2013-04-20 19:37:00,53.8,12.0,30.04,SW,217,0.0,1.0,19,0.00,,,0.00,weatherlink.com 1.10,2013-04-21 02:37:00,
2013-04-20 19:52:00,52.1,15.0,30.05,SW,217,0.0,1.0,23,0.00,,,0.00,weatherlink.com 1.10,2013-04-21 02:52:00,
2013-04-20 20:07:00,49.4,16.0,30.06,SW,217,0.0,1.0,26,0.00,,,0.00,weatherlink.com 1.10,2013-04-21 03:07:00,
2013-04-20 20:22:00,46.6,16.0,30.07,SW,217,0.0,1.0,29,0.00,,,0.00,weatherlink.com 1.10,2013-04-21 03:22:00,
2013-04-20 20:37:00,45.0,15.0,30.08,SW,217,0.0,2.0,30,0.00,,,0.00,weatherlink.com 1.10,2013-04-21 03:37:00,
2013-04-20 20:52:00,43.5,15.0,30.09,SW,217,0.0,1.0,32,0.00,,,0.00,weatherlink.com 1.10,2013-04-21 03:52:00,
2013-04-20 21:07:00,42.1,16.0,30.09,SW,217,0.0,1.0,35,0.00,,,0.00,weatherlink.com 1.10,2013-04-21 04:07:00,
2013-04-20 21:22:00,41.0,16.0,30.10,SW,217,0.0,0.0,36,0.00,,,0.00,weatherlink.com 1.10,2013-04-21 04:22:00,
2013-04-20 21:37:00,40.4,16.0,30.11,SW,217,0.0,0.0,38,0.00,,,0.00,weatherlink.com 1.10,2013-04-21 04:37:00,
2013-04-20 21:52:00,39.8,17.0,30.11,SW,217,0.0,0.0,39,0.00,,,0.00,weatherlink.com 1.10,2013-04-21 04:52:00,
2013-04-20 22:07:00,39.1,16.0,30.12,SW,217,0.0,0.0,39,0.00,,,0.00,weatherlink.com 1.10,2013-04-21 05:07:00,
2013-04-20 22:22:00,38.6,17.0,30.12,SW,217,0.0,0.0,41,0.00,,,0.00,weatherlink.com 1.10,2013-04-21 05:22:00,
2013-04-20 22:37:00,38.5,17.0,30.11,SW,217,0.0,0.0,41,0.00,,,0.00,weatherlink.com 1.10,2013-04-21 05:37:00,
2013-04-20 22:52:00,38.4,16.0,30.12,SW,217,0.0,0.0,41,0.00,,,0.00,weatherlink.com 1.10,2013-04-21 05:52:00,
2013-04-20 23:07:00,38.0,17.0,30.12,SW,217,0.0,0.0,42,0.00,,,0.00,weatherlink.com 1.10,2013-04-21 06:07:00,
2013-04-20 23:22:00,37.4,17.0,30.12,SW,217,0.0,1.0,43,0.00,,,0.00,weatherlink.com 1.10,2013-04-21 06:22:00,
2013-04-20 23:37:00,36.8,17.0,30.13,SW,217,0.0,0.0,44,0.00,,,0.00,weatherlink.com 1.10,2013-04-21 06:37:00,
2013-04-20 23:52:00,36.1,16.0,30.13,SW,217,0.0,1.0,45,0.00,,,0.00,weatherlink.com 1.10,2013-04-21 06:52:00,